Airfield :







YOU CAN JOIN US ON...

 
LOGIN :

Register | Disclaimer

   EN    FR    IT 

 









Legend :    VFR   Marginal VFR   IFR   Intensive IFR   Very Intensive IFR
Visi :
Ceiling :
>= 8 km
>= 3000ft
5 to 8 km
1000 to 3000 ft
1500m to 5 km
500 to 1000 ft
800 to 1500m
200 to 500 ft
< 800m
< 200 ft
Symbols :   Thunderstorms  Fog  Heavy snow  Heavy precipitations  Wind > 20 kt






- Airport Elevation : 56 ft
- IATA code : MCP


SBMQ - Macapa Int.

CURRENT METAR :
  • 120900Z 22002KT 9999 FEW010 23/23 Q1012

EXPIRED METARs :
  • 120800Z 36002KT 9999 SCT010 24/24 Q1012
  • 120700Z 02001KT 9999 SCT010 24/24 Q1011

TAF TAF SBMQ
Valid from the 12 at 06:00 until the 13 at 06:00 UTC


120300Z 1206/1306 06005KT 9999 SCT018 TN25/1209Z TX29/1216Z
BECMG 1210/1212 BKN018
BECMG 1218/1220 SCT025 FEW030TCU
BECMG 1222/1224 6000 TSRA SCT025 FEW030CB
BECMG 1300/1302 9999 NSW SCT020 RMK PED
SBAZ FIR / South America



MET'MAP, your aeronautical weather chart ! - Copyright ORBIFLY December 2007 - Disclaimer

ORBIFLY MET'MAP TEAM :

Programming & Development : Alexandra Zaïnal
Concept & original design : Baudouin d'Aumeries
Assistance for programming : Marc-Olivier Méhu
Technical & hardware support : Manuel Goepfert

Contact : metmap@orbifly.com




SOURCES & CREDITS :

   NOAA